createdAt,value
2017-07-08T10:46:46.987Z,16.4
2017-07-08T11:00:18.257Z,16.5
2017-07-08T11:15:17.858Z,16.6
2017-07-08T11:30:18.272Z,16.7
2017-07-08T11:45:17.939Z,16.8
2017-07-08T12:00:17.652Z,16.9
2017-07-08T12:15:18.369Z,17
2017-07-08T12:30:18.159Z,17.1
2017-07-08T12:45:17.757Z,17.2
2017-07-08T13:00:18.419Z,17.4
2017-07-08T13:15:18.745Z,17.5
2017-07-08T13:30:18.505Z,17.7
2017-07-08T13:45:18.235Z,17.8
2017-07-08T14:00:18.357Z,17.8
2017-07-08T14:15:17.933Z,17.9
2017-07-08T14:30:17.757Z,18
2017-07-08T14:45:18.531Z,18
2017-07-08T15:00:18.933Z,18
2017-07-08T15:15:18.719Z,18.1
2017-07-08T15:30:18.553Z,18.1
2017-07-08T15:45:18.156Z,18.1
2017-07-08T16:00:17.721Z,18
2017-07-08T16:15:18.527Z,18
2017-07-08T16:30:19.119Z,17.9
2017-07-08T16:45:18.994Z,17.9
2017-07-08T17:00:18.185Z,17.9
2017-07-08T17:15:18.860Z,17.8
2017-07-08T17:30:17.573Z,17.8
2017-07-08T17:45:18.141Z,17.6
2017-07-08T18:00:18.277Z,17.6
2017-07-08T18:15:18.057Z,17.5
2017-07-08T18:30:17.748Z,17.4
2017-07-08T18:45:18.308Z,17.3
2017-07-08T19:00:17.987Z,17.2
2017-07-08T19:15:18.846Z,17.1
2017-07-08T19:30:17.737Z,17.1
2017-07-08T19:45:18.359Z,17
2017-07-08T20:00:18.035Z,16.9
2017-07-08T20:15:17.614Z,16.9
2017-07-08T20:30:18.423Z,16.8
2017-07-08T20:45:18.246Z,16.8
2017-07-08T21:00:17.986Z,16.7
2017-07-08T21:15:17.686Z,16.6
2017-07-08T21:30:18.338Z,16.6
2017-07-08T21:45:18.041Z,16.6
2017-07-08T22:00:17.795Z,16.5
2017-07-08T22:15:18.419Z,16.4
2017-07-08T22:30:18.150Z,16.4
2017-07-08T22:45:18.021Z,16.4
2017-07-08T23:00:17.753Z,16.3
2017-07-08T23:15:18.500Z,16.3
2017-07-08T23:30:18.217Z,16.2
2017-07-08T23:45:18.085Z,16.2
